Data for 09/07/2008

Time Sea-Level Adjusted Pressure Absolute Pressure Temperature Relative Humidity Dew Point   
(mb) (inHg) (mb) (inHg) (C) (F) (%) (C) (F)
00:05 1021 30.15 851 25.13 8.3 46.9 78 4.7 40.5
00:10 1021 30.15 850 25.1 8.2 46.7 80 5 41
00:15 1021 30.15 850 25.1 7.9 46.3 81 4.9 40.8
00:20 1021 30.15 850 25.1 7.8 46.1 82 4.9 40.9
00:25 1021 30.15 850 25.1 7.8 46.1 81 4.8 40.7
00:30 1021 30.15 850 25.1 7.8 46.1 82 4.9 40.8
00:35 1021 30.15 850 25.1 7.8 46.1 82 4.9 40.9
00:40 1021 30.15 850 25.1 7.8 46.1 82 5 41
00:45 1021 30.15 850 25.1 7.8 46 82 5 41
00:50 1021 30.15 850 25.1 7.7 45.9 82 4.9 40.9
00:55 1021 30.15 850 25.1 7.8 46 82 4.9 40.8
01:00 1021 30.15 850 25.1 7.8 46 81 4.7 40.5
01:05 1021 30.15 850 25.1 7.8 46 81 4.8 40.6
01:10 1021 30.15 850 25.1 7.8 46 80 4.7 40.4
01:15 1021 30.15 850 25.1 7.8 46.1 80 4.7 40.4
01:20 1021 30.15 851 25.13 7.8 46 80 4.6 40.4
01:25 1021 30.15 851 25.13 7.8 46 80 4.6 40.3
01:30 1021 30.15 851 25.13 7.8 46 81 4.7 40.4
01:35 1021 30.15 851 25.13 7.8 46 81 4.7 40.4
01:40 1021 30.15 851 25.13 7.8 46.1 80 4.6 40.2
01:45 1021 30.15 851 25.13 7.8 46 80 4.6 40.3
01:50 1021 30.15 851 25.13 7.8 46.1 79 4.4 40
01:55 1021 30.15 851 25.13 7.8 46 80 4.5 40.1
02:00 1021 30.15 851 25.13 7.8 46 80 4.5 40.1
02:05 1021 30.15 851 25.13 7.8 46 79 4.5 40
02:10 1021 30.15 851 25.13 7.8 46 79 4.4 40
02:15 1021 30.15 851 25.13 7.8 46 79 4.4 39.8
02:20 1021 30.15 851 25.13 7.8 46.1 79 4.3 39.8
02:25 1021 30.15 851 25.13 7.8 46 79 4.4 39.9
02:30 1021 30.15 851 25.13 7.8 46 79 4.4 39.9
02:35 1021 30.15 851 25.13 7.8 46 79 4.4 39.9
02:40 1021 30.15 850 25.1 7.8 46 79 4.3 39.8
02:45 1021 30.15 850 25.1 7.8 46 79 4.4 39.8
02:50 1021 30.15 850 25.1 7.7 45.8 79 4.4 39.8
02:55 1021 30.15 850 25.1 7.7 45.8 80 4.4 39.9
03:00 1021 30.15 850 25.1 7.6 45.7 79 4.3 39.7
03:05 1021 30.15 850 25.1 7.6 45.7 80 4.3 39.8
03:10 1021 30.15 850 25.1 7.6 45.7 79 4.3 39.7
03:15 1021 30.15 850 25.1 7.6 45.6 79 4.2 39.5
03:20 1021 30.15 850 25.1 7.6 45.7 79 4.2 39.6
03:25 1021 30.15 850 25.1 7.6 45.7 79 4.3 39.7
03:30 1021 30.15 850 25.1 7.6 45.7 79 4.3 39.7
03:35 1021 30.15 850 25.1 7.6 45.7 80 4.4 39.9
03:40 1021 30.15 850 25.1 7.6 45.7 80 4.4 40
03:45 1021 30.15 850 25.1 7.5 45.6 81 4.6 40.2
03:50 1021 30.15 850 25.1 7.5 45.4 82 4.6 40.2
03:55 1021 30.15 850 25.1 7.4 45.4 81 4.4 40
04:00 1021 30.15 850 25.1 7.4 45.3 80 4.2 39.5
04:05 1021 30.15 850 25.1 7.3 45.2 80 4.1 39.4
04:10 1021 30.15 850 25.1 7.3 45.2 80 4.1 39.5
04:15 1021 30.15 850 25.1 7.3 45.1 80 4.1 39.4
04:20 1021 30.15 850 25.1 7.2 45 81 4.2 39.5
04:25 1021 30.15 850 25.1 7.2 44.9 81 4.2 39.5
04:30 1021 30.15 851 25.13 7.1 44.8 82 4.2 39.6
04:35 1021 30.15 851 25.13 7.1 44.8 81 4.1 39.5
04:40 1021 30.15 850 25.1 7.1 44.8 81 4.1 39.4
04:45 1021 30.15 851 25.13 7.1 44.8 81 4.1 39.5
04:50 1021 30.15 851 25.13 7.1 44.7 81 4.1 39.3
04:55 1021 30.15 851 25.13 7.1 44.7 81 4.1 39.3
05:00 1021 30.15 850 25.1 7 44.6 82 4.2 39.5
05:05 1021 30.15 850 25.1 6.9 44.4 83 4.2 39.5
05:10 1021 30.15 850 25.1 6.9 44.3 83 4.1 39.4
05:15 1021 30.15 851 25.13 6.8 44.2 83 4.1 39.4
05:20 1021 30.15 851 25.13 6.7 44.1 83 4 39.2
05:25 1021 30.15 851 25.13 6.7 44 82 3.9 38.9
05:30 1021 30.15 851 25.13 6.6 43.9 82 3.7 38.7
05:35 1021 30.15 851 25.13 6.6 43.9 81 3.6 38.4
05:40 1021 30.15 850 25.1 6.6 43.9 80 3.5 38.3
05:45 1021 30.15 850 25.1 6.5 43.8 81 3.5 38.3
05:50 1021 30.15 850 25.1 6.4 43.6 82 3.6 38.4
05:55 1021 30.15 851 25.13 6.3 43.4 82 3.5 38.2
06:00 1021 30.15 851 25.13 6.3 43.4 82 3.4 38.1
06:05 1021 30.15 851 25.13 6.3 43.3 81 3.3 37.9
06:10 1021 30.15 851 25.13 6.3 43.3 80 3 37.4
06:15 1021 30.15 851 25.13 6.3 43.4 80 3.1 37.6
06:20 1021 30.15 851 25.13 6.3 43.3 80 3.1 37.5
06:25 1022 30.18 851 25.13 6.2 43.1 81 3.2 37.8
06:30 1022 30.18 851 25.13 6.1 43 82 3.2 37.8
06:35 1022 30.18 851 25.13 6.1 42.9 82 3.2 37.8
06:40 1022 30.18 851 25.13 6.1 43 82 3.2 37.7
06:45 1022 30.18 851 25.13 6.1 43 82 3.3 37.9
06:50 1022 30.18 851 25.13 6 42.9 83 3.4 38.1
06:55 1022 30.18 851 25.13 5.9 42.7 85 3.6 38.5
07:00 1022 30.18 851 25.13 5.9 42.6 85 3.6 38.4
07:05 1022 30.18 851 25.13 5.8 42.4 86 3.6 38.5
07:10 1022 30.18 851 25.13 5.8 42.4 85 3.4 38.1
07:15 1022 30.18 852 25.16 5.7 42.2 86 3.5 38.4
07:20 1022 30.18 852 25.16 5.6 42.1 87 3.6 38.4
07:25 1022 30.18 852 25.16 5.5 41.9 87 3.6 38.4
07:30 1023 30.21 852 25.16 5.5 41.8 89 3.8 38.8
07:35 1023 30.21 852 25.16 5.4 41.7 89 3.8 38.8
07:40 1023 30.21 852 25.16 5.3 41.6 89 3.7 38.6
07:45 1023 30.21 852 25.16 5.3 41.5 90 3.8 38.8
07:50 1023 30.21 852 25.16 5.3 41.6 90 3.8 38.9
07:55 1023 30.21 852 25.16 5.3 41.6 90 3.8 38.8
08:00 1023 30.21 852 25.16 5.4 41.6 90 3.9 38.9
08:05 1023 30.21 852 25.16 5.3 41.6 90 3.8 38.9
08:10 1023 30.21 852 25.16 5.3 41.6 91 3.9 39.1
08:15 1023 30.21 852 25.16 5.3 41.6 90 3.8 38.9
08:20 1023 30.21 852 25.16 5.3 41.5 91 3.8 38.9
08:25 1023 30.21 852 25.16 5.2 41.4 91 4 39.1
08:30 1023 30.21 852 25.16 5.2 41.4 91 4 39.1
08:35 1023 30.21 852 25.16 5.2 41.4 92 4 39.2
08:40 1023 30.21 852 25.16 5.3 41.5 90 3.8 38.8
08:45 1023 30.21 852 25.16 5.3 41.6 90 3.8 38.9
08:50 1023 30.21 852 25.16 5.3 41.6 90 3.9 39
08:55 1023 30.21 852 25.16 5.3 41.6 90 3.8 38.9
09:00 1023 30.21 853 25.19 5.4 41.7 91 4 39.2
09:05 1023 30.21 853 25.19 5.3 41.6 90 3.8 38.9
09:10 1023 30.21 853 25.19 5.3 41.6 90 3.9 39
09:15 1023 30.21 853 25.19 5.3 41.6 90 3.8 38.8
09:20 1023 30.21 853 25.19 5.3 41.5 91 3.9 39.1
09:25 1024 30.24 853 25.19 5.3 41.6 90 3.8 38.8
09:30 1024 30.24 853 25.19 5.3 41.6 90 3.9 39
09:35 1024 30.24 853 25.19 5.4 41.8 91 4.1 39.4
09:40 1024 30.24 853 25.19 5.6 42.1 91 4.3 39.7
09:45 1024 30.24 853 25.19 5.7 42.3 91 4.3 39.8
09:50 1024 30.24 853 25.19 5.8 42.5 89 4.1 39.4
09:55 1024 30.24 853 25.19 5.8 42.5 86 3.7 38.7
10:00 1024 30.24 853 25.19 5.9 42.6 85 3.6 38.5
10:05 1024 30.24 853 25.19 6 42.8 84 3.4 38.1
10:10 1024 30.24 853 25.19 6 42.8 85 3.7 38.6
10:15 1024 30.24 853 25.19 6.1 42.9 83 3.4 38.2
10:20 1024 30.24 853 25.19 6.3 43.3 85 3.9 39.1
10:25 1024 30.24 853 25.19 6.4 43.4 84 3.9 39
10:30 1024 30.24 853 25.19 6.5 43.8 82 3.7 38.7
10:35 1024 30.24 853 25.19 6.7 44 80 3.5 38.4
10:40 1024 30.24 853 25.19 6.5 43.7 81 3.5 38.3
10:45 1024 30.24 853 25.19 6.6 43.9 81 3.5 38.3
10:50 1024 30.24 853 25.19 6.5 43.8 85 4.3 39.7
10:55 1024 30.24 853 25.19 6.7 44 82 3.9 38.9
11:00 1024 30.24 853 25.19 6.4 43.6 84 3.9 39
11:05 1024 30.24 853 25.19 6.6 43.8 80 3.4 38.1
11:10 1024 30.24 853 25.19 6.6 43.9 81 3.6 38.4
11:15 1024 30.24 853 25.19 6.9 44.4 80 3.7 38.6
11:20 1024 30.24 853 25.19 6.9 44.5 79 3.6 38.4
11:25 1024 30.24 853 25.19 6.9 44.3 78 3.3 37.9
11:30 1024 30.24 853 25.19 7.1 44.7 76 3.2 37.7
11:35 1024 30.24 853 25.19 7.3 45.1 77 3.6 38.4
11:40 1024 30.24 853 25.19 7.4 45.3 75 3.2 37.8
11:45 1024 30.24 853 25.19 7.4 45.3 76 3.4 38.1
11:50 1024 30.24 853 25.19 7.6 45.7 75 3.5 38.4
11:55 1024 30.24 853 25.19 7.8 46 75 3.6 38.5
12:00 1024 30.24 853 25.19 7.7 45.8 75 3.5 38.2
12:05 1024 30.24 853 25.19 7.8 46.1 73 3.3 37.9
12:10 1024 30.24 853 25.19 7.8 46 72 3.1 37.5
12:15 1024 30.24 853 25.19 7.8 46.1 73 3.4 38
12:20 1024 30.24 853 25.19 7.7 45.9 74 3.5 38.3
12:25 1024 30.24 853 25.19 7.6 45.6 75 3.4 38.2
12:30 1024 30.24 853 25.19 7.5 45.6 74 3.2 37.7
12:35 1024 30.24 853 25.19 7.5 45.5 75 3.4 38.2
12:40 1024 30.24 853 25.19 7.5 45.6 74 3.2 37.8
12:45 1024 30.24 853 25.19 7.8 46 73 3.2 37.8
12:50 1024 30.24 853 25.19 7.7 45.9 74 3.4 38.2
12:55 1024 30.24 853 25.19 8 46.3 73 3.5 38.2
13:00 1024 30.24 853 25.19 7.9 46.2 73 3.3 38
13:05 1024 30.24 853 25.19 7.9 46.2 73 3.4 38.1
13:10 1024 30.24 853 25.19 8 46.5 73 3.4 38.2
13:15 1024 30.24 853 25.19 8 46.4 72 3.3 37.9
13:20 1024 30.24 853 25.19 8.3 46.9 68 2.8 37
13:25 1024 30.24 853 25.19 8.6 47.5 68 3.1 37.5
13:30 1024 30.24 853 25.19 9.6 49.2 63 2.9 37.2
13:35 1024 30.24 853 25.19 9.6 49.3 63 2.9 37.2
13:40 1024 30.24 853 25.19 10.1 50.3 63 3.3 38
13:45 1024 30.24 853 25.19 10.1 50.2 72 5.3 41.5
13:50 1024 30.24 853 25.19 10.1 50.2 72 5.3 41.6
13:55 1024 30.24 853 25.19 10 49.9 76 6 42.8
14:00 1024 30.24 853 25.19 9.6 49.3 75 5.4 41.7
14:05 1024 30.24 853 25.19 9.4 48.9 79 6 42.7
14:10 1024 30.24 853 25.19 10 49.9 73 5.4 41.8
14:15 1024 30.24 853 25.19 9.6 49.2 74 5.3 41.5
14:20 1024 30.24 853 25.19 10.2 50.3 71 5.1 41.2
14:25 1024 30.24 853 25.19 10.6 51.1 68 5 41.1
14:30 1024 30.24 853 25.19 10.7 51.2 68 5 41
14:35 1024 30.24 853 25.19 10.8 51.4 65 4.5 40.1
14:40 1024 30.24 853 25.19 11 51.9 60 3.6 38.4
14:45 1024 30.24 853 25.19 10.1 50.3 66 4 39.3
14:50 1024 30.24 853 25.19 10.5 50.9 59 2.9 37.2
14:55 1024 30.24 853 25.19 12.1 53.7 53 2.9 37.2
15:00 1024 30.24 853 25.19 12.9 55.2 52 3.5 38.2
15:05 1024 30.24 853 25.19 12.5 54.4 55 3.7 38.7
15:10 1024 30.24 853 25.19 11.4 52.5 59 3.7 38.7
15:15 1024 30.24 853 25.19 11.1 52 60 3.7 38.7
15:20 1024 30.24 853 25.19 10.9 51.6 59 3.3 37.9
15:25 1024 30.24 853 25.19 11.2 52.1 60 3.7 38.6
15:30 1024 30.24 853 25.19 12.1 53.8 56 3.6 38.5
15:35 1024 30.24 853 25.19 12.7 54.8 55 4 39.2
15:40 1024 30.24 853 25.19 12.2 53.9 56 3.7 38.7
15:45 1024 30.24 853 25.19 12.9 55.2 52 3.3 37.9
15:50 1024 30.24 853 25.19 13 55.3 53 3.6 38.4
15:55 1024 30.24 853 25.19 13.4 56.1 48 2.7 36.8
16:00 1024 30.24 853 25.19 12.8 55.1 53 3.7 38.6
16:05 1024 30.24 853 25.19 12.2 53.9 58 4.1 39.4
16:10 1024 30.24 853 25.19 12.2 53.9 57 4.1 39.3
16:15 1024 30.24 853 25.19 12.1 53.8 55 3.4 38.2
16:20 1024 30.24 853 25.19 12.2 53.9 57 4 39.1
16:25 1024 30.24 853 25.19 12.1 53.9 56 3.6 38.4
16:30 1024 30.24 853 25.19 12 53.6 58 4 39.2
16:35 1024 30.24 853 25.19 12.1 53.8 57 4 39.1
16:40 1024 30.24 853 25.19 11.4 52.5 58 3.6 38.5
16:45 1024 30.24 853 25.19 10.5 50.9 63 3.7 38.7
16:50 1024 30.24 853 25.19 10.2 50.3 63 3.4 38.1
16:55 1024 30.24 853 25.19 9.8 49.6 64 3.3 38
17:00 1024 30.24 853 25.19 9.4 48.8 64 3 37.4
17:05 1024 30.24 853 25.19 9.2 48.6 64 2.8 37
17:10 1024 30.24 853 25.19 9.4 48.8 63 2.7 36.9
17:15 1024 30.24 853 25.19 9.5 49.1 62 2.7 36.8
17:20 1024 30.24 853 25.19 9.6 49.3 64 3.2 37.7
17:25 1024 30.24 853 25.19 9.2 48.5 68 3.7 38.6
17:30 1024 30.24 853 25.19 8.8 47.9 70 3.7 38.7
17:35 1024 30.24 853 25.19 8.9 48.1 70 3.7 38.7
17:40 1024 30.24 853 25.19 8.9 47.9 68 3.4 38.1
17:45 1024 30.24 854 25.22 8.9 47.9 69 3.5 38.3
17:50 1024 30.24 854 25.22 8.9 48 69 3.5 38.3
17:55 1024 30.24 853 25.19 9 48.1 66 3 37.4
18:00 1024 30.24 853 25.19 9.5 49.2 63 3 37.4
18:05 1024 30.24 854 25.22 10 49.9 64 3.4 38.2
18:10 1024 30.24 854 25.22 9.8 49.7 63 3.3 37.9
18:15 1024 30.24 854 25.22 9.7 49.4 62 2.7 36.9
18:20 1024 30.24 854 25.22 9.5 49 62 2.6 36.6
18:25 1024 30.24 854 25.22 9.3 48.8 64 3 37.3
18:30 1024 30.24 854 25.22 9.1 48.3 66 3.1 37.5
18:35 1024 30.24 854 25.22 9 48.1 66 2.9 37.2
18:40 1024 30.24 854 25.22 8.9 47.9 66 2.8 37.1
18:45 1024 30.24 854 25.22 8.8 47.8 66 2.8 37.1
18:50 1024 30.24 854 25.22 8.8 47.9 65 2.8 37
18:55 1024 30.24 854 25.22 8.9 48.1 65 2.7 36.9
19:00 1024 30.24 854 25.22 9 48.2 65 2.7 36.9
19:05 1024 30.24 854 25.22 9 48.3 65 2.8 37
19:10 1024 30.24 854 25.22 9 48.2 65 2.9 37.2
19:15 1024 30.24 854 25.22 8.9 48 66 3 37.4
19:20 1024 30.24 854 25.22 8.8 47.8 66 2.9 37.1
19:25 1024 30.24 854 25.22 8.7 47.7 67 2.9 37.2
19:30 1024 30.24 854 25.22 8.6 47.5 68 3 37.5
19:35 1024 30.24 854 25.22 8.5 47.3 68 3 37.4
19:40 1024 30.24 854 25.22 8.4 47.1 70 3.2 37.8
19:45 1024 30.24 854 25.22 8.3 47 70 3.1 37.6
19:50 1025 30.27 854 25.22 8.2 46.8 70 3.2 37.7
19:55 1025 30.27 854 25.22 8.2 46.7 70 3.1 37.5
20:00 1025 30.27 854 25.22 8.1 46.6 70 3 37.3
20:05 1025 30.27 854 25.22 8 46.5 67 2.4 36.3
20:10 1025 30.27 854 25.22 8 46.5 69 2.7 36.8
20:15 1025 30.27 854 25.22 7.9 46.1 70 2.8 37
20:20 1025 30.27 854 25.22 7.6 45.6 73 3 37.4
20:25 1025 30.27 854 25.22 7.4 45.3 74 3.1 37.6
20:30 1025 30.27 854 25.22 7.4 45.2 75 3.1 37.6
20:35 1025 30.27 854 25.22 7.3 45.1 75 3.2 37.7
20:40 1025 30.27 854 25.22 7.2 45 75 3.2 37.7
20:45 1025 30.27 854 25.22 7.1 44.8 77 3.3 37.9
20:50 1025 30.27 854 25.22 7 44.5 78 3.3 38
20:55 1025 30.27 854 25.22 6.9 44.5 79 3.5 38.3
21:00 1025 30.27 854 25.22 6.8 44.3 79 3.5 38.4
21:05 1025 30.27 854 25.22 6.7 44.1 79 3.4 38.1
21:10 1025 30.27 854 25.22 6.7 44.1 79 3.3 37.9
21:15 1025 30.27 854 25.22 6.8 44.3 77 3.2 37.7
21:20 1025 30.27 854 25.22 7 44.5 77 3.3 37.9
21:25 1025 30.27 854 25.22 6.9 44.5 78 3.3 38
21:30 1025 30.27 854 25.22 6.8 44.3 79 3.4 38.2
21:35 1025 30.27 854 25.22 6.7 44.1 79 3.4 38.1
21:40 1025 30.27 854 25.22 6.7 44 79 3.3 37.9
21:45 1025 30.27 854 25.22 6.7 44.1 79 3.3 38
21:50 1025 30.27 854 25.22 6.7 44.1 79 3.4 38.1
21:55 1025 30.27 854 25.22 6.8 44.2 78 3.3 37.9
22:00 1025 30.27 854 25.22 6.8 44.2 78 3.3 37.9
22:05 1025 30.27 854 25.22 6.7 44.1 79 3.3 37.9
22:10 1025 30.27 854 25.22 6.7 44.1 79 3.3 37.9
22:15 1025 30.27 854 25.22 6.7 44 79 3.2 37.8
22:20 1025 30.27 854 25.22 6.7 44 79 3.2 37.8
22:25 1025 30.27 854 25.22 6.7 44 79 3.3 37.9
22:30 1025 30.27 854 25.22 6.7 44 79 3.3 37.9
22:35 1025 30.27 854 25.22 6.6 43.9 79 3.2 37.8
22:40 1025 30.27 854 25.22 6.8 44.2 78 3.2 37.8
22:45 1025 30.27 854 25.22 6.7 44.1 79 3.3 38
22:50 1025 30.27 854 25.22 6.5 43.7 79 3.1 37.7
22:55 1025 30.27 854 25.22 6.3 43.4 80 3.1 37.6
23:00 1025 30.27 854 25.22 6 42.7 81 2.9 37.3
23:05 1025 30.27 854 25.22 5.8 42.4 81 2.7 36.8
23:10 1025 30.27 854 25.22 6 42.8 78 2.5 36.5
23:15 1025 30.27 854 25.22 6.4 43.6 76 2.6 36.6
23:20 1025 30.27 854 25.22 6.6 43.9 74 2.4 36.3
23:25 1025 30.27 854 25.22 6.8 44.2 74 2.6 36.6
23:30 1025 30.27 854 25.22 6.7 44 75 2.6 36.7
23:35 1025 30.27 854 25.22 6.5 43.8 76 2.6 36.6
23:40 1025 30.27 854 25.22 6.6 43.9 76 2.6 36.7
23:45 1025 30.27 854 25.22 6.5 43.7 76 2.5 36.6
23:50 1025 30.27 854 25.22 6.3 43.3 77 2.6 36.6
23:55 1025 30.27 854 25.22 6 42.8 80 2.8 37
24:00 1025 30.27 854 25.22 5.9 42.6 80 2.7 36.8